(°C)
-1°
-1°
-2°
-2°
-3°
-3°
(°C)
-4°
-4°
-5°
-6°
-6°
-6°
-7°
KB
KB
KKB
KKB
KKB
KB
KB
(km/saat)
9-24
7-20
7-18
7-18
6-17
6-18
7-17
(mm)
0
0
0
0
0
1.2
0
(%)
33
33
33
28
33
44
28

Güneşin açısı

/ -49.3°
sun-icon
UV 1
07:50
17:00
Azalan ay (220°)
20:40
09:59

İnnsbruck (LOWI) için METAR

Zaman Koşullar Sıcaklık/
Çiy noktası
Rüzgar Görünürlük Hava Bulutlar Basınç Değiştir Ham
VFR -1°C / -4°C 80º variable 020º to 140º 5kt >10km - Few Clouds 1800ft
Scattered Clouds 2800ft
Broken Clouds 5000ft
1027 - LOWI 210150Z AUTO 08005KT 020V140 9999 FEW018 SCT028 BKN050 M01/M04 Q1027
VFR 0°C / -4°C variable 3kt >10km - Few Clouds 2600ft
Broken Clouds 5000ft
1026 - LOWI 210120Z AUTO VRB03KT 9999 FEW026 BKN050 M00/M04 Q1026
VFR 0°C / -4°C 50º 6kt >10km - Few Clouds 3400ft
Broken Clouds 5000ft
1026 - LOWI 210050Z AUTO 05006KT 9999 FEW034 BKN050 M00/M04 Q1026
VFR 0°C / -4°C variable 3kt >10km - Few Clouds 2200ft
Scattered Clouds 5000ft
Broken Clouds 6000ft
1026 - LOWI 210020Z AUTO VRB03KT 9999 FEW022 SCT050 BKN060 M00/M04 Q1026
VFR 0°C / -4°C 110º 9kt >10km - Few Clouds 2400ft
Broken Clouds 6000ft
1026 - LOWI 202350Z AUTO 11009KT 9999 FEW024 BKN060 00/M04 Q1026
VFR 1°C / -4°C 110º variable 060º to 180º 4kt >10km - Few Clouds 1700ft
Broken Clouds 7000ft
1026 - LOWI 202320Z AUTO 11004KT 060V180 9999 FEW017 BKN070 01/M04 Q1026
VFR 1°C / -4°C variable 2kt >10km - Few Clouds 1500ft
Scattered Clouds 5000ft
Broken Clouds 7000ft
1025 - LOWI 202250Z AUTO VRB02KT 9999 FEW015 SCT050 BKN070 01/M04 Q1025
VFR 1°C / -3°C 110º variable 070º to 160º 4kt >10km - Few Clouds 4000ft
Broken Clouds 5000ft
1025 - LOWI 202220Z AUTO 11004KT 070V160 9999 FEW040 BKN050 01/M03 Q1025
VFR 1°C / -2°C 90º 12kt >10km Light Snow 1.00mm precipitation Vertical Visibility of 0ft.
Scattered Clouds 5000ft
Broken Clouds 7000ft
1025 No Significant change LOWI 202150Z 09012KT 9999 -SN FEW025 SCT050 BKN070 01/M02 Q1025 NOSIG
VFR 1°C / -2°C 100º variable 060º to 120º 9kt >10km - Few Clouds 2500ft
Scattered Clouds 5000ft
Broken Clouds 7000ft
1024 No Significant change LOWI 202120Z 10009KT 060V120 9999 FEW025 SCT050 BKN070 01/M02 Q1024 NOSIG
VFR 1°C / -3°C 90º variable 060º to 120º 8kt >10km - Few Clouds 2500ft
Scattered Clouds 5000ft
Broken Clouds 7000ft
1024 No Significant change LOWI 202050Z 09008KT 060V120 9999 FEW025 SCT050 BKN070 01/M03 Q1024 NOSIG
VFR 2°C / -3°C 130º variable 100º to 180º 6kt >10km - Few Clouds 2500ft
Scattered Clouds 5000ft
Broken Clouds 8000ft
1024 No Significant change LOWI 202020Z 13006KT 100V180 9999 FEW025 SCT050 BKN080 02/M03 Q1024 NOSIG
VFR 3°C / -5°C 300º 12kt >10km Light Snow 1.00mm precipitation Vertical Visibility of 0ft.
Scattered Clouds 3200ft
Broken Clouds 5000ft
1023 No Significant change LOWI 201950Z 30012KT 9999 -SN FEW025 SCT032 BKN050 03/M05 Q1023 NOSIG
VFR 4°C / -7°C 290º variable 260º to 330º 11kt Gust 21kt >10km - Few Clouds 2800ft
Scattered Clouds 3500ft
Broken Clouds 6000ft
1023 No Significant change LOWI 201920Z 29011G21KT 260V330 9999 FEW028 SCT035 BKN060 04/M07 Q1023 NOSIG
VFR 4°C / -8°C 280º variable 250º to 340º 14kt Gust 25kt >10km - Few Clouds 2800ft
Scattered Clouds 3500ft
Broken Clouds 6000ft
1023 No Significant change LOWI 201850Z 28014G25KT 250V340 9999 FEW028 SCT035 BKN060 04/M08 Q1023 NOSIG
VFR 4°C / -8°C 290º variable 250º to 320º 12kt Gust 24kt >10km - Few Clouds 3500ft
Broken Clouds 5000ft
1023 No Significant change LOWI 201820Z 29012G24KT 250V320 9999 FEW035 BKN050 04/M08 Q1023 NOSIG
VFR 4°C / -7°C 330º variable 290º to 350º 13kt >10km - Few Clouds 3200ft
Scattered Clouds 4000ft
Broken Clouds 6000ft
1023 No Significant change LOWI 201750Z 33013KT 290V350 9999 FEW032 SCT040 BKN060 04/M07 Q1023 NOSIG
VFR 2°C / -2°C variable 3kt >10km - Few Clouds 4200ft
Broken Clouds 5000ft
1023 Temporary: Wind 270º 15kt. LOWI 201720Z VRB03KT 9999 FEW042 BKN050 02/M02 Q1023 TEMPO 27015KT
VFR 1°C / -2°C variable 3kt >10km - Few Clouds 5000ft
Broken Clouds 7000ft
1023 Temporary: Wind 270º 12kt. LOWI 201650Z VRB03KT 9999 FEW050 BKN070 01/M02 Q1023 TEMPO 27012KT
VFR 2°C / -2°C variable 2kt >10km - Few Clouds 4500ft
Broken Clouds 7000ft
1023 No Significant change LOWI 201620Z VRB02KT 9999 FEW045 BKN070 02/M02 Q1023 NOSIG
VFR 3°C / -2°C 100º variable 070º to 150º 3kt >10km - Few Clouds 4200ft
Broken Clouds 7500ft
1023 No Significant change LOWI 201550Z 10003KT 070V150 9999 FEW042 BKN075 03/M02 Q1023 NOSIG
VFR 3°C / -1°C variable 2kt >10km - Few Clouds 1700ft
Broken Clouds 7500ft
1022 No Significant change LOWI 201520Z VRB02KT 9999 FEW017 BKN075 03/M01 Q1022 NOSIG
VFR 3°C / -1°C variable 2kt >10km - Few Clouds 1700ft
Scattered Clouds 6000ft
Broken Clouds 7500ft
1022 No Significant change LOWI 201450Z VRB02KT 9999 FEW017 SCT060 BKN075 03/M01 Q1022 NOSIG
VFR 3°C / 0°C 60º variable 020º to 100º 4kt >10km - Few Clouds 2000ft
Scattered Clouds 6000ft
Broken Clouds 7500ft
1022 No Significant change LOWI 201420Z 06004KT 020V100 9999 FEW020 SCT060 BKN075 03/M00 Q1022 NOSIG

VFR

-1°C / -4°C

[Daha fazla]
Rüzgar 80º variable 020º to 140º 5kt
Görünürlük >10km
Hava -
Bulutlar Few Clouds 1800ft
Scattered Clouds 2800ft
Broken Clouds 5000ft
Basınç 1027
Değiştir -
Ham LOWI 210150Z AUTO 08005KT 020V140 9999 FEW018 SCT028 BKN050 M01/M04 Q1027

VFR

0°C / -4°C

[Daha fazla]
Rüzgar variable 3kt
Görünürlük >10km
Hava -
Bulutlar Few Clouds 2600ft
Broken Clouds 5000ft
Basınç 1026
Değiştir -
Ham LOWI 210120Z AUTO VRB03KT 9999 FEW026 BKN050 M00/M04 Q1026

VFR

0°C / -4°C

[Daha fazla]
Rüzgar 50º 6kt
Görünürlük >10km
Hava -
Bulutlar Few Clouds 3400ft
Broken Clouds 5000ft
Basınç 1026
Değiştir -
Ham LOWI 210050Z AUTO 05006KT 9999 FEW034 BKN050 M00/M04 Q1026

VFR

0°C / -4°C

[Daha fazla]
Rüzgar variable 3kt
Görünürlük >10km
Hava -
Bulutlar Few Clouds 2200ft
Scattered Clouds 5000ft
Broken Clouds 6000ft
Basınç 1026
Değiştir -
Ham LOWI 210020Z AUTO VRB03KT 9999 FEW022 SCT050 BKN060 M00/M04 Q1026

VFR

0°C / -4°C

[Daha fazla]
Rüzgar 110º 9kt
Görünürlük >10km
Hava -
Bulutlar Few Clouds 2400ft
Broken Clouds 6000ft
Basınç 1026
Değiştir -
Ham LOWI 202350Z AUTO 11009KT 9999 FEW024 BKN060 00/M04 Q1026

VFR

1°C / -4°C

[Daha fazla]
Rüzgar 110º variable 060º to 180º 4kt
Görünürlük >10km
Hava -
Bulutlar Few Clouds 1700ft
Broken Clouds 7000ft
Basınç 1026
Değiştir -
Ham LOWI 202320Z AUTO 11004KT 060V180 9999 FEW017 BKN070 01/M04 Q1026

VFR

1°C / -4°C

[Daha fazla]
Rüzgar variable 2kt
Görünürlük >10km
Hava -
Bulutlar Few Clouds 1500ft
Scattered Clouds 5000ft
Broken Clouds 7000ft
Basınç 1025
Değiştir -
Ham LOWI 202250Z AUTO VRB02KT 9999 FEW015 SCT050 BKN070 01/M04 Q1025

VFR

1°C / -3°C

[Daha fazla]
Rüzgar 110º variable 070º to 160º 4kt
Görünürlük >10km
Hava -
Bulutlar Few Clouds 4000ft
Broken Clouds 5000ft
Basınç 1025
Değiştir -
Ham LOWI 202220Z AUTO 11004KT 070V160 9999 FEW040 BKN050 01/M03 Q1025

VFR

1°C / -2°C

[Daha fazla]
Rüzgar 90º 12kt
Görünürlük >10km
Hava Light Snow 1.00mm precipitation
Bulutlar Vertical Visibility of 0ft.
Scattered Clouds 5000ft
Broken Clouds 7000ft
Basınç 1025
Değiştir No Significant change
Ham LOWI 202150Z 09012KT 9999 -SN FEW025 SCT050 BKN070 01/M02 Q1025 NOSIG

VFR

1°C / -2°C

[Daha fazla]
Rüzgar 100º variable 060º to 120º 9kt
Görünürlük >10km
Hava -
Bulutlar Few Clouds 2500ft
Scattered Clouds 5000ft
Broken Clouds 7000ft
Basınç 1024
Değiştir No Significant change
Ham LOWI 202120Z 10009KT 060V120 9999 FEW025 SCT050 BKN070 01/M02 Q1024 NOSIG

VFR

1°C / -3°C

[Daha fazla]
Rüzgar 90º variable 060º to 120º 8kt
Görünürlük >10km
Hava -
Bulutlar Few Clouds 2500ft
Scattered Clouds 5000ft
Broken Clouds 7000ft
Basınç 1024
Değiştir No Significant change
Ham LOWI 202050Z 09008KT 060V120 9999 FEW025 SCT050 BKN070 01/M03 Q1024 NOSIG

VFR

2°C / -3°C

[Daha fazla]
Rüzgar 130º variable 100º to 180º 6kt
Görünürlük >10km
Hava -
Bulutlar Few Clouds 2500ft
Scattered Clouds 5000ft
Broken Clouds 8000ft
Basınç 1024
Değiştir No Significant change
Ham LOWI 202020Z 13006KT 100V180 9999 FEW025 SCT050 BKN080 02/M03 Q1024 NOSIG

VFR

3°C / -5°C

[Daha fazla]
Rüzgar 300º 12kt
Görünürlük >10km
Hava Light Snow 1.00mm precipitation
Bulutlar Vertical Visibility of 0ft.
Scattered Clouds 3200ft
Broken Clouds 5000ft
Basınç 1023
Değiştir No Significant change
Ham LOWI 201950Z 30012KT 9999 -SN FEW025 SCT032 BKN050 03/M05 Q1023 NOSIG

VFR

4°C / -7°C

[Daha fazla]
Rüzgar 290º variable 260º to 330º 11kt Gust 21kt
Görünürlük >10km
Hava -
Bulutlar Few Clouds 2800ft
Scattered Clouds 3500ft
Broken Clouds 6000ft
Basınç 1023
Değiştir No Significant change
Ham LOWI 201920Z 29011G21KT 260V330 9999 FEW028 SCT035 BKN060 04/M07 Q1023 NOSIG

VFR

4°C / -8°C

[Daha fazla]
Rüzgar 280º variable 250º to 340º 14kt Gust 25kt
Görünürlük >10km
Hava -
Bulutlar Few Clouds 2800ft
Scattered Clouds 3500ft
Broken Clouds 6000ft
Basınç 1023
Değiştir No Significant change
Ham LOWI 201850Z 28014G25KT 250V340 9999 FEW028 SCT035 BKN060 04/M08 Q1023 NOSIG

VFR

4°C / -8°C

[Daha fazla]
Rüzgar 290º variable 250º to 320º 12kt Gust 24kt
Görünürlük >10km
Hava -
Bulutlar Few Clouds 3500ft
Broken Clouds 5000ft
Basınç 1023
Değiştir No Significant change
Ham LOWI 201820Z 29012G24KT 250V320 9999 FEW035 BKN050 04/M08 Q1023 NOSIG

VFR

4°C / -7°C

[Daha fazla]
Rüzgar 330º variable 290º to 350º 13kt
Görünürlük >10km
Hava -
Bulutlar Few Clouds 3200ft
Scattered Clouds 4000ft
Broken Clouds 6000ft
Basınç 1023
Değiştir No Significant change
Ham LOWI 201750Z 33013KT 290V350 9999 FEW032 SCT040 BKN060 04/M07 Q1023 NOSIG

VFR

2°C / -2°C

[Daha fazla]
Rüzgar variable 3kt
Görünürlük >10km
Hava -
Bulutlar Few Clouds 4200ft
Broken Clouds 5000ft
Basınç 1023
Değiştir Temporary: Wind 270º 15kt.
Ham LOWI 201720Z VRB03KT 9999 FEW042 BKN050 02/M02 Q1023 TEMPO 27015KT

VFR

1°C / -2°C

[Daha fazla]
Rüzgar variable 3kt
Görünürlük >10km
Hava -
Bulutlar Few Clouds 5000ft
Broken Clouds 7000ft
Basınç 1023
Değiştir Temporary: Wind 270º 12kt.
Ham LOWI 201650Z VRB03KT 9999 FEW050 BKN070 01/M02 Q1023 TEMPO 27012KT

VFR

2°C / -2°C

[Daha fazla]
Rüzgar variable 2kt
Görünürlük >10km
Hava -
Bulutlar Few Clouds 4500ft
Broken Clouds 7000ft
Basınç 1023
Değiştir No Significant change
Ham LOWI 201620Z VRB02KT 9999 FEW045 BKN070 02/M02 Q1023 NOSIG

VFR

3°C / -2°C

[Daha fazla]
Rüzgar 100º variable 070º to 150º 3kt
Görünürlük >10km
Hava -
Bulutlar Few Clouds 4200ft
Broken Clouds 7500ft
Basınç 1023
Değiştir No Significant change
Ham LOWI 201550Z 10003KT 070V150 9999 FEW042 BKN075 03/M02 Q1023 NOSIG

VFR

3°C / -1°C

[Daha fazla]
Rüzgar variable 2kt
Görünürlük >10km
Hava -
Bulutlar Few Clouds 1700ft
Broken Clouds 7500ft
Basınç 1022
Değiştir No Significant change
Ham LOWI 201520Z VRB02KT 9999 FEW017 BKN075 03/M01 Q1022 NOSIG

VFR

3°C / -1°C

[Daha fazla]
Rüzgar variable 2kt
Görünürlük >10km
Hava -
Bulutlar Few Clouds 1700ft
Scattered Clouds 6000ft
Broken Clouds 7500ft
Basınç 1022
Değiştir No Significant change
Ham LOWI 201450Z VRB02KT 9999 FEW017 SCT060 BKN075 03/M01 Q1022 NOSIG

VFR

3°C / 0°C

[Daha fazla]
Rüzgar 60º variable 020º to 100º 4kt
Görünürlük >10km
Hava -
Bulutlar Few Clouds 2000ft
Scattered Clouds 6000ft
Broken Clouds 7500ft
Basınç 1022
Değiştir No Significant change
Ham LOWI 201420Z 06004KT 020V100 9999 FEW020 SCT060 BKN075 03/M00 Q1022 NOSIG

İnnsbruck (LOWI) için TAF

From till


Maximum Temperature 2ºC on . Minimum Temperature -2ºC on .
From till Wind 70º 5kt. Visibility 10km or more. Few Clouds 3000ft. Broken Clouds 5000ft.
With 40% probability, Temporarly from till Wind 270º 10kt. Visibility 3000m. Showers Snow .
Temporarly from till Light Snow .

Ham: TAF LOWI 202315Z 2100/2124 07005KT 9999 FEW030 BKN050 TX02/2114Z TNM02/2121Z TEMPO 2100/2112 -SN PROB40 TEMPO 2100/2109 27010KT 3000 SHSN

İnnsbruck için Radar

Çise
Hafif
Orta
Ağır
Çok ağır
Selamlamak

Konum işaretleyicisi İnnsbruck üzerine yerleştirilir. Bu animasyon son saat içerisindeki yağış radarını ve 2h tahminini gösterir. Hafif yağmur veya kar yağışı radar için görünmez olabilir. Yağış şiddeti açık mavi ile koyu mor arasındaki renklerle kodlanmıştır.
Copyright 2022 Deutscher Wetterdienst / meteoblue.

İnnsbruck için şu anki uydu ve yağmur görüntüleri, Avusturya

Konum işaretleyici İnnsbruck üzerine yerleştirilir. [Daha fazla]

Gerçek zamanlı uydu görüntüsü gündüz süresince görülür ışığı gece süresince kızılötesi ışınım ile birleştirir. Gece kızılötesi ışınım sıcaklık farklarını algılayabildiğinden dolayı görüntü karanlık değildir. Ancak düşük bulutları ve sisi yer sıcaklığından ayırmak zordur ve bu nedenle gece boyunca neredeyse görünmez olabilirler. Avrupa için Meteosat uydu görüntüleri gerçek zamanlı olarak her 5 dakikada bir güncellenir. GOES-16/GOES-17 (Kuzey ve Güney Amerika) ve Himawari (Asya) görüntüleri her 10 dakikada bir güncellenir.

Yağış radar ve uydudan tahmin edilir. Uydulardan gece yapılan yağış tahminleri gündüz yapılan tahminlere göre daha az kusursuzdur. Turuncu çarpılar şimşeklerin saptandığı yerleri gösterir (Avrupa üzeri).

Copyright 2022 EUMETSAT / meteoblue. nowcast tarafından sağlanan şimşek verileri.